createdAt,value
2018-07-20T00:00:34.788Z,73.80
2018-07-20T00:03:03.444Z,73.80
2018-07-20T00:05:31.979Z,74.00
2018-07-20T00:08:00.574Z,74.00
2018-07-20T00:10:29.099Z,74.30
2018-07-20T00:12:57.749Z,74.50
2018-07-20T00:15:26.249Z,74.60
2018-07-20T00:17:54.815Z,74.70
2018-07-20T00:20:23.288Z,74.60
2018-07-20T00:22:51.887Z,74.80
2018-07-20T00:25:20.468Z,74.80
2018-07-20T00:27:49.118Z,75.00
2018-07-20T00:30:17.650Z,75.20
2018-07-20T00:32:46.227Z,75.40
2018-07-20T00:35:14.854Z,75.50
2018-07-20T00:37:43.489Z,75.50
2018-07-20T00:40:11.965Z,75.50
2018-07-20T00:42:40.573Z,75.60
2018-07-20T00:45:09.146Z,75.70
2018-07-20T00:47:37.665Z,75.70
2018-07-20T00:50:06.971Z,75.70
2018-07-20T00:52:35.709Z,75.80
2018-07-20T00:55:04.305Z,75.80
2018-07-20T00:57:32.810Z,76.00
2018-07-20T01:00:01.362Z,76.10
2018-07-20T01:02:29.936Z,76.10
2018-07-20T01:04:58.503Z,76.20
2018-07-20T01:07:27.057Z,76.20
2018-07-20T01:09:55.677Z,76.20
2018-07-20T01:12:24.328Z,76.30
2018-07-20T01:14:52.895Z,76.40
2018-07-20T01:17:21.392Z,76.50
2018-07-20T01:19:49.988Z,76.70
2018-07-20T01:22:18.556Z,76.80
2018-07-20T01:24:47.239Z,76.80
2018-07-20T01:27:15.859Z,76.70
2018-07-20T01:29:44.450Z,76.80
2018-07-20T01:32:12.984Z,77.10
2018-07-20T01:34:41.500Z,77.20
2018-07-20T01:37:10.078Z,77.10
2018-07-20T01:39:38.635Z,77.10
2018-07-20T01:42:07.114Z,76.60
2018-07-20T01:44:35.736Z,77.10
2018-07-20T01:47:04.309Z,77.10
2018-07-20T01:49:32.877Z,77.20
2018-07-20T01:52:01.450Z,77.40
2018-07-20T01:54:30.168Z,77.50
2018-07-20T01:56:58.710Z,77.60
2018-07-20T01:59:27.243Z,77.50
2018-07-20T02:01:55.847Z,77.80
2018-07-20T02:04:24.477Z,77.90
2018-07-20T02:06:53.095Z,77.90
2018-07-20T02:09:21.609Z,78.10
2018-07-20T02:11:50.124Z,78.00
2018-07-20T02:14:18.688Z,78.00
2018-07-20T02:16:47.276Z,78.20
2018-07-20T02:19:15.799Z,78.20
2018-07-20T02:21:44.381Z,78.20
2018-07-20T02:24:13.012Z,78.40
2018-07-20T02:26:41.567Z,78.40
2018-07-20T02:29:10.162Z,78.30
2018-07-20T02:31:38.707Z,78.40
2018-07-20T02:34:07.814Z,78.50
2018-07-20T02:36:36.406Z,78.50
2018-07-20T02:39:08.595Z,78.60
2018-07-20T02:41:37.170Z,78.60
2018-07-20T02:44:05.765Z,78.60
2018-07-20T02:46:34.314Z,78.60
2018-07-20T02:49:02.857Z,78.70
2018-07-20T02:51:31.440Z,78.80
2018-07-20T02:54:00.028Z,78.80
2018-07-20T02:56:28.635Z,78.90
2018-07-20T02:58:57.264Z,79.50
2018-07-20T03:01:25.800Z,78.60
2018-07-20T03:03:54.330Z,78.50
2018-07-20T03:06:22.862Z,78.40
2018-07-20T03:08:51.393Z,78.40
2018-07-20T03:11:19.959Z,78.40
2018-07-20T03:13:48.671Z,78.50
2018-07-20T03:16:17.299Z,78.60
2018-07-20T03:18:45.799Z,78.60
2018-07-20T03:21:14.342Z,78.70
2018-07-20T03:23:43.303Z,78.80
2018-07-20T03:26:11.820Z,79.30
2018-07-20T03:28:40.367Z,79.10
2018-07-20T03:31:08.939Z,79.30
2018-07-20T03:33:37.486Z,79.40
2018-07-20T03:36:06.029Z,79.40
2018-07-20T03:38:34.545Z,79.50
2018-07-20T03:41:03.077Z,79.60
2018-07-20T03:43:31.684Z,79.70
2018-07-20T03:46:00.254Z,79.50
2018-07-20T03:48:28.769Z,79.60
2018-07-20T03:50:57.305Z,79.60
2018-07-20T03:53:25.943Z,79.70
2018-07-20T03:55:54.621Z,79.90
2018-07-20T03:58:23.171Z,80.40
2018-07-20T04:00:51.705Z,80.00
2018-07-20T04:05:48.624Z,80.30
2018-07-20T04:08:17.236Z,80.20
2018-07-20T04:10:45.754Z,80.10
2018-07-20T04:15:42.636Z,80.10
2018-07-20T04:18:11.160Z,80.20
2018-07-20T04:20:40.638Z,80.20
2018-07-20T04:23:09.338Z,80.10
2018-07-20T04:25:37.854Z,80.20
2018-07-20T04:28:06.403Z,80.20
2018-07-20T04:30:34.921Z,80.30
2018-07-20T04:33:03.466Z,80.20
2018-07-20T04:35:32.117Z,80.40
2018-07-20T04:38:00.683Z,80.40
2018-07-20T04:42:57.699Z,80.40
2018-07-20T04:45:26.341Z,80.30
2018-07-20T04:47:55.320Z,80.20
2018-07-20T04:50:24.182Z,80.10
2018-07-20T04:52:53.117Z,80.20
2018-07-20T04:55:21.683Z,80.30
2018-07-20T05:00:18.490Z,80.30
2018-07-20T05:02:47.238Z,80.20
2018-07-20T05:05:15.826Z,80.30
2018-07-20T05:07:44.599Z,80.00
2018-07-20T05:10:13.203Z,79.80
2018-07-20T05:12:41.788Z,79.60
2018-07-20T05:15:10.340Z,79.60
2018-07-20T05:17:38.834Z,79.50
2018-07-20T05:20:07.464Z,79.40
2018-07-20T05:22:36.090Z,79.20
2018-07-20T05:25:04.659Z,79.70
2018-07-20T05:27:33.173Z,78.60
2018-07-20T05:30:01.702Z,78.40
2018-07-20T05:32:30.389Z,78.30
2018-07-20T05:34:58.878Z,78.00
2018-07-20T05:37:27.423Z,77.80
2018-07-20T05:39:56.011Z,77.60
2018-07-20T05:42:24.575Z,77.40
2018-07-20T05:44:53.122Z,77.20
2018-07-20T05:47:21.621Z,77.20
2018-07-20T05:49:50.138Z,77.20
2018-07-20T05:52:18.685Z,77.20
2018-07-20T05:54:47.234Z,77.40
2018-07-20T05:57:16.102Z,77.20
2018-07-20T05:59:44.715Z,77.10
2018-07-20T06:02:14.117Z,76.90
2018-07-20T06:04:42.757Z,76.80
2018-07-20T06:07:11.386Z,76.70
2018-07-20T06:09:39.866Z,77.00
2018-07-20T06:12:08.923Z,77.00
2018-07-20T06:14:37.439Z,76.70
2018-07-20T06:17:06.199Z,76.50
2018-07-20T06:19:34.754Z,76.10
2018-07-20T06:22:03.233Z,75.90
2018-07-20T06:24:31.785Z,75.70
2018-07-20T06:27:00.302Z,75.50
2018-07-20T06:29:28.966Z,75.40
2018-07-20T06:31:57.387Z,75.40
2018-07-20T06:34:26.066Z,75.20
2018-07-20T06:36:54.603Z,74.90
2018-07-20T06:39:23.181Z,75.00
2018-07-20T06:41:51.722Z,74.70
2018-07-20T06:44:21.220Z,74.20
2018-07-20T06:46:49.793Z,73.60
2018-07-20T06:49:18.355Z,73.20
2018-07-20T06:51:46.938Z,73.00
2018-07-20T06:54:15.566Z,72.50
2018-07-20T06:56:44.110Z,72.20
2018-07-20T06:59:12.720Z,72.00
2018-07-20T07:01:41.295Z,71.50
2018-07-20T07:04:09.902Z,71.40
2018-07-20T07:06:38.427Z,71.30
2018-07-20T07:09:08.715Z,71.10
2018-07-20T07:11:37.585Z,70.70
2018-07-20T07:14:06.552Z,70.20
2018-07-20T07:16:35.234Z,69.60
2018-07-20T07:19:04.216Z,69.10
2018-07-20T07:21:32.824Z,68.90
2018-07-20T07:24:01.701Z,68.30
2018-07-20T07:26:30.366Z,67.80
2018-07-20T07:28:59.051Z,67.30
2018-07-20T07:31:27.774Z,66.90
2018-07-20T07:33:56.383Z,66.60
2018-07-20T07:36:24.909Z,66.60
2018-07-20T07:38:53.406Z,67.20
2018-07-20T07:41:21.913Z,66.10
2018-07-20T07:43:50.526Z,65.80
2018-07-20T07:46:19.428Z,66.00
2018-07-20T07:48:47.958Z,65.50
2018-07-20T07:51:16.497Z,64.80
2018-07-20T07:53:45.077Z,64.30
2018-07-20T07:56:13.576Z,64.00
2018-07-20T07:58:42.104Z,63.20
2018-07-20T08:01:10.595Z,62.70
2018-07-20T08:03:39.114Z,63.00
2018-07-20T08:06:07.721Z,62.60
2018-07-20T08:08:36.244Z,62.30
2018-07-20T08:11:04.860Z,61.80
2018-07-20T08:13:33.658Z,60.90
2018-07-20T08:16:05.054Z,60.60
2018-07-20T08:18:33.605Z,59.60
2018-07-20T08:21:02.143Z,58.60
2018-07-20T08:30:17.013Z,57.20
2018-07-20T08:32:45.581Z,56.60
2018-07-20T08:35:14.235Z,56.90
2018-07-20T08:37:42.723Z,56.70
2018-07-20T08:40:11.232Z,56.50
2018-07-20T08:42:39.881Z,56.40
2018-07-20T08:45:08.573Z,55.90
2018-07-20T08:47:37.081Z,54.70
2018-07-20T08:50:06.232Z,54.00
2018-07-20T08:54:04.316Z,53.20
2018-07-20T08:56:32.939Z,53.10
2018-07-20T08:59:01.514Z,53.00
2018-07-20T09:01:30.156Z,52.90
2018-07-20T09:03:58.772Z,52.50
2018-07-20T09:06:27.323Z,52.50
2018-07-20T09:08:55.939Z,52.50
2018-07-20T09:11:24.467Z,52.80
2018-07-20T09:13:53.114Z,52.50
2018-07-20T09:16:21.585Z,52.60
2018-07-20T09:18:50.190Z,52.50
2018-07-20T09:21:18.713Z,51.80
2018-07-20T09:23:47.455Z,51.20
2018-07-20T09:26:15.954Z,51.60
2018-07-20T09:28:44.435Z,51.50
2018-07-20T09:31:13.008Z,51.20
2018-07-20T09:33:41.694Z,51.00
2018-07-20T09:36:10.241Z,50.70
2018-07-20T09:38:38.855Z,50.00
2018-07-20T09:41:07.408Z,49.60
2018-07-20T09:43:36.006Z,48.60
2018-07-20T09:46:04.621Z,48.30
2018-07-20T09:48:33.126Z,48.20
2018-07-20T09:51:01.648Z,47.90
2018-07-20T09:53:30.225Z,47.40
2018-07-20T09:55:58.747Z,47.00
2018-07-20T09:58:27.287Z,46.70
2018-07-20T10:00:55.895Z,46.20
2018-07-20T10:03:24.463Z,46.10
2018-07-20T10:05:52.968Z,46.30
2018-07-20T10:08:21.511Z,45.10
2018-07-20T10:10:50.754Z,45.40
2018-07-20T10:13:19.760Z,45.30
2018-07-20T10:15:48.344Z,44.50
2018-07-20T10:18:17.204Z,44.20
2018-07-20T10:20:45.702Z,44.30
2018-07-20T10:23:14.196Z,44.10
2018-07-20T10:25:42.958Z,44.10
2018-07-20T10:28:11.446Z,43.90
2018-07-20T10:30:39.986Z,44.30
2018-07-20T10:33:08.587Z,43.90
2018-07-20T10:35:37.116Z,44.10
2018-07-20T10:38:05.919Z,43.90
2018-07-20T10:40:34.455Z,43.90
2018-07-20T10:43:03.113Z,44.10
2018-07-20T10:45:31.579Z,44.10
2018-07-20T10:48:00.085Z,43.40
2018-07-20T10:50:28.580Z,43.40
2018-07-20T10:52:57.249Z,43.10
2018-07-20T10:55:25.736Z,42.80
2018-07-20T10:57:55.465Z,43.00
2018-07-20T11:00:23.960Z,43.40
2018-07-20T11:02:52.529Z,43.40
2018-07-20T11:05:21.014Z,43.60
2018-07-20T11:07:49.506Z,43.70
2018-07-20T11:10:18.013Z,43.20
2018-07-20T11:12:46.538Z,43.40
2018-07-20T11:15:15.138Z,43.40
2018-07-20T11:17:43.581Z,43.10
2018-07-20T11:20:12.072Z,43.20
2018-07-20T11:22:40.554Z,43.50
2018-07-20T11:25:09.023Z,43.10
2018-07-20T11:30:06.189Z,43.10
2018-07-20T11:32:34.686Z,42.60
2018-07-20T11:35:03.168Z,41.80
2018-07-20T11:37:31.649Z,41.70
2018-07-20T11:40:00.121Z,41.30
2018-07-20T11:42:28.598Z,41.30
2018-07-20T11:44:57.079Z,40.80
2018-07-20T11:47:25.527Z,40.20
2018-07-20T11:49:54.084Z,40.20
2018-07-20T11:52:22.575Z,39.50
2018-07-20T11:54:51.070Z,39.60
2018-07-20T11:57:19.597Z,39.10
2018-07-20T11:59:48.134Z,38.90
2018-07-20T12:02:16.596Z,38.80
2018-07-20T12:04:45.155Z,38.90
2018-07-20T12:07:13.701Z,38.90
2018-07-20T12:09:42.292Z,39.00
2018-07-20T12:12:10.803Z,39.00
2018-07-20T12:14:39.402Z,39.50
2018-07-20T12:17:07.952Z,39.70
2018-07-20T12:19:36.421Z,39.70
2018-07-20T12:22:04.872Z,41.00
2018-07-20T12:24:33.398Z,40.30
2018-07-20T12:27:01.935Z,40.90
2018-07-20T12:29:30.437Z,40.80
2018-07-20T12:31:59.041Z,41.10
2018-07-20T12:34:27.680Z,40.90
2018-07-20T12:36:56.165Z,41.20
2018-07-20T12:39:24.689Z,41.00
2018-07-20T12:41:53.195Z,40.80
2018-07-20T12:44:21.666Z,39.60
2018-07-20T12:46:50.164Z,40.50
2018-07-20T12:49:18.630Z,40.70
2018-07-20T12:51:47.131Z,40.50
2018-07-20T12:54:15.640Z,40.50
2018-07-20T12:56:44.109Z,40.40
2018-07-20T12:59:12.638Z,40.60
2018-07-20T13:01:41.144Z,40.20
2018-07-20T13:04:09.757Z,39.70
2018-07-20T13:06:38.219Z,40.20
2018-07-20T13:09:09.042Z,40.50
2018-07-20T13:11:37.511Z,40.50
2018-07-20T13:14:06.031Z,40.60
2018-07-20T13:16:34.558Z,40.50
2018-07-20T13:19:03.043Z,41.00
2018-07-20T13:21:31.501Z,41.00
2018-07-20T13:24:00.100Z,40.50
2018-07-20T13:26:28.566Z,40.40
2018-07-20T13:28:57.070Z,40.40
2018-07-20T13:31:25.545Z,40.20
2018-07-20T13:33:54.118Z,40.20
2018-07-20T13:36:22.568Z,40.50
2018-07-20T13:38:51.327Z,40.70
2018-07-20T13:41:19.790Z,40.50
2018-07-20T13:43:48.316Z,40.00
2018-07-20T13:46:16.878Z,40.30
2018-07-20T13:48:45.760Z,40.90
2018-07-20T13:51:14.270Z,41.60
2018-07-20T13:53:42.856Z,42.50
2018-07-20T13:56:11.370Z,43.30
2018-07-20T13:58:39.841Z,43.70
2018-07-20T14:01:09.380Z,44.00
2018-07-20T14:03:37.952Z,43.70
2018-07-20T14:06:06.713Z,42.90
2018-07-20T14:08:35.198Z,42.20
2018-07-20T14:11:03.698Z,41.10
2018-07-20T14:13:32.277Z,40.30
2018-07-20T14:16:00.816Z,40.30
2018-07-20T14:18:29.423Z,40.80
2018-07-20T14:20:58.117Z,41.00
2018-07-20T14:23:26.815Z,40.80
2018-07-20T14:25:55.370Z,39.80
2018-07-20T14:30:52.085Z,39.90
2018-07-20T14:33:20.672Z,39.90
2018-07-20T14:35:49.255Z,39.70
2018-07-20T14:38:17.761Z,39.80
2018-07-20T14:40:46.243Z,39.90
2018-07-20T14:43:14.832Z,39.90
2018-07-20T14:48:11.601Z,40.70
2018-07-20T14:50:40.245Z,40.70
2018-07-20T14:53:08.827Z,40.90
2018-07-20T14:55:51.984Z,40.30
2018-07-20T14:58:20.514Z,39.30
2018-07-20T15:00:49.051Z,39.20
2018-07-20T15:03:17.574Z,38.60
2018-07-20T15:05:46.071Z,38.50
2018-07-20T15:08:14.570Z,38.40
2018-07-20T15:10:43.058Z,38.60
2018-07-20T15:13:11.603Z,38.40
2018-07-20T15:15:40.055Z,38.80
2018-07-20T15:18:08.683Z,38.70
2018-07-20T15:20:37.170Z,38.80
2018-07-20T15:23:06.167Z,39.10
2018-07-20T15:25:34.654Z,39.30
2018-07-20T15:28:03.224Z,39.40
2018-07-20T15:30:31.689Z,39.40
2018-07-20T15:33:00.303Z,39.50
2018-07-20T15:35:28.804Z,39.50
2018-07-20T15:37:57.369Z,39.20
2018-07-20T15:40:25.904Z,38.40
2018-07-20T15:42:54.511Z,38.00
2018-07-20T15:45:23.106Z,38.00
2018-07-20T15:47:51.623Z,37.90
2018-07-20T15:50:20.163Z,37.70
2018-07-20T15:53:40.959Z,38.50
2018-07-20T15:55:17.221Z,38.30
2018-07-20T15:57:45.731Z,38.70
2018-07-20T16:00:14.323Z,38.80
2018-07-20T16:02:42.940Z,38.50
2018-07-20T16:05:11.504Z,39.20
2018-07-20T16:07:40.139Z,39.40
2018-07-20T16:10:08.624Z,40.10
2018-07-20T16:12:37.242Z,40.80
2018-07-20T16:15:05.864Z,41.10
2018-07-20T16:17:34.428Z,41.20
2018-07-20T16:20:02.969Z,41.40
2018-07-20T16:22:31.578Z,41.50
2018-07-20T16:25:00.090Z,42.00
2018-07-20T16:27:28.633Z,42.60
2018-07-20T16:29:57.190Z,42.40
2018-07-20T16:32:25.736Z,42.90
2018-07-20T16:34:54.295Z,43.50
2018-07-20T16:39:51.062Z,44.40
2018-07-20T16:42:19.646Z,44.90
2018-07-20T16:44:48.399Z,45.60
2018-07-20T16:47:16.987Z,46.20
2018-07-20T16:49:45.408Z,46.50
2018-07-20T16:52:14.027Z,46.60
2018-07-20T16:54:42.610Z,46.50
2018-07-20T16:59:39.446Z,46.90
2018-07-20T17:02:08.049Z,47.40
2018-07-20T17:04:36.781Z,47.70
2018-07-20T17:07:05.505Z,48.00
2018-07-20T17:09:34.154Z,48.30
2018-07-20T17:12:02.781Z,48.50
2018-07-20T17:14:31.425Z,49.20
2018-07-20T17:16:59.986Z,49.40
2018-07-20T17:19:28.603Z,48.60
2018-07-20T17:21:57.162Z,48.70
2018-07-20T17:24:25.803Z,48.70
2018-07-20T17:26:54.463Z,48.80
2018-07-20T17:29:23.034Z,49.10
2018-07-20T17:31:51.558Z,49.40
2018-07-20T17:34:20.223Z,50.20
2018-07-20T17:36:48.789Z,50.80
2018-07-20T17:39:17.438Z,50.90
2018-07-20T17:41:46.156Z,50.70
2018-07-20T17:44:15.917Z,50.30
2018-07-20T17:46:44.458Z,50.00
2018-07-20T17:49:13.054Z,49.70
2018-07-20T17:51:41.653Z,50.00
2018-07-20T17:54:10.489Z,50.30
2018-07-20T17:56:39.117Z,50.60
2018-07-20T17:59:07.681Z,51.70
2018-07-20T18:01:37.385Z,51.40
2018-07-20T18:04:06.083Z,51.80
2018-07-20T18:06:34.629Z,51.90
2018-07-20T18:09:03.247Z,52.00
2018-07-20T18:11:31.819Z,52.20
2018-07-20T18:14:00.416Z,52.50
2018-07-20T18:16:29.070Z,53.10
2018-07-20T18:18:57.583Z,53.50
2018-07-20T18:21:26.207Z,53.50
2018-07-20T18:23:54.902Z,53.40
2018-07-20T18:26:23.655Z,53.50
2018-07-20T18:28:52.236Z,53.50
2018-07-20T18:31:20.814Z,54.30
2018-07-20T18:33:49.518Z,53.80
2018-07-20T18:36:18.063Z,54.00
2018-07-20T18:38:46.600Z,54.20
2018-07-20T18:41:15.228Z,54.40
2018-07-20T18:43:43.720Z,54.60
2018-07-20T18:46:12.339Z,54.70
2018-07-20T18:48:40.880Z,55.10
2018-07-20T18:51:09.580Z,55.60
2018-07-20T18:53:38.262Z,56.10
2018-07-20T18:56:06.878Z,56.80
2018-07-20T18:58:35.326Z,57.30
2018-07-20T19:01:03.883Z,57.70
2018-07-20T19:03:32.508Z,57.70
2018-07-20T19:06:01.024Z,57.60
2018-07-20T19:08:29.572Z,57.60
2018-07-20T19:10:58.051Z,57.60
2018-07-20T19:13:26.716Z,57.70
2018-07-20T19:15:55.182Z,57.90
2018-07-20T19:18:23.659Z,57.90
2018-07-20T19:23:20.512Z,58.60
2018-07-20T19:25:49.098Z,58.60
2018-07-20T19:28:18.602Z,58.80
2018-07-20T19:30:47.209Z,58.80
2018-07-20T19:33:15.743Z,58.60
2018-07-20T19:35:44.241Z,58.30
2018-07-20T19:38:12.767Z,58.10
2018-07-20T19:40:41.316Z,58.10
2018-07-20T19:43:09.882Z,58.20
2018-07-20T19:45:38.392Z,58.30
2018-07-20T19:48:06.885Z,58.30
2018-07-20T19:50:35.612Z,58.10
2018-07-20T19:53:04.183Z,58.30
2018-07-20T19:55:32.682Z,58.40
2018-07-20T19:58:01.292Z,58.60
2018-07-20T20:00:30.871Z,58.70
2018-07-20T20:02:59.615Z,59.10
2018-07-20T20:05:28.154Z,59.60
2018-07-20T20:07:56.707Z,59.90
2018-07-20T20:10:25.242Z,60.00
2018-07-20T20:12:53.969Z,60.30
2018-07-20T20:15:22.491Z,60.30
2018-07-20T20:17:50.960Z,60.70
2018-07-20T20:20:19.615Z,61.10
2018-07-20T20:22:48.176Z,61.40
2018-07-20T20:25:16.695Z,61.90
2018-07-20T20:27:45.227Z,62.20
2018-07-20T20:30:13.925Z,62.40
2018-07-20T20:32:42.466Z,62.60
2018-07-20T20:35:10.994Z,62.80
2018-07-20T20:37:39.605Z,63.00
2018-07-20T20:40:08.678Z,63.40
2018-07-20T20:42:37.256Z,63.40
2018-07-20T20:45:06.832Z,63.50
2018-07-20T20:47:35.340Z,63.70
2018-07-20T20:50:04.141Z,63.80
2018-07-20T20:52:32.707Z,63.80
2018-07-20T20:57:29.535Z,64.20
2018-07-20T20:59:58.063Z,64.10
2018-07-20T21:02:26.534Z,64.30
2018-07-20T21:04:55.123Z,64.40
2018-07-20T21:07:23.637Z,64.50
2018-07-20T21:09:52.133Z,64.60
2018-07-20T21:12:20.688Z,64.60
2018-07-20T21:14:49.247Z,64.60
2018-07-20T21:17:17.702Z,64.50
2018-07-20T21:19:46.210Z,64.50
2018-07-20T21:22:14.716Z,64.40
2018-07-20T21:24:43.246Z,64.40
2018-07-20T21:27:11.777Z,64.50
2018-07-20T21:29:40.290Z,64.60
2018-07-20T21:32:08.777Z,64.40
2018-07-20T21:34:37.412Z,64.80
2018-07-20T21:37:05.874Z,64.90
2018-07-20T21:39:34.396Z,65.10
2018-07-20T21:42:02.931Z,65.20
2018-07-20T21:44:31.503Z,65.40
2018-07-20T21:46:59.988Z,65.60
2018-07-20T21:49:28.500Z,65.70
2018-07-20T21:51:57.006Z,65.80
2018-07-20T21:54:25.534Z,65.90
2018-07-20T21:56:54.939Z,66.10
2018-07-20T21:59:23.457Z,66.40
2018-07-20T22:01:53.049Z,66.60
2018-07-20T22:04:21.736Z,66.80
2018-07-20T22:06:50.205Z,67.00
2018-07-20T22:09:18.755Z,67.20
2018-07-20T22:11:47.403Z,67.20
2018-07-20T22:14:16.028Z,67.50
2018-07-20T22:19:12.758Z,68.00
2018-07-20T22:21:41.263Z,68.30
2018-07-20T22:24:09.826Z,68.50
2018-07-20T22:26:38.391Z,68.60
2018-07-20T22:29:06.942Z,69.60
2018-07-20T22:31:35.498Z,68.90
2018-07-20T22:34:04.118Z,69.00
2018-07-20T22:36:32.682Z,69.00
2018-07-20T22:39:01.284Z,69.30
2018-07-20T22:41:29.822Z,69.40
2018-07-20T22:43:58.447Z,69.30
2018-07-20T22:46:26.994Z,69.20
2018-07-20T22:48:55.599Z,69.20
2018-07-20T22:51:24.115Z,68.80
2018-07-20T22:53:52.707Z,68.50
2018-07-20T22:56:21.303Z,68.40
2018-07-20T22:58:49.814Z,67.80
2018-07-20T23:01:18.366Z,67.60
2018-07-20T23:03:46.911Z,66.90
2018-07-20T23:06:15.424Z,66.30
2018-07-20T23:08:44.213Z,65.60
2018-07-20T23:11:13.344Z,65.90
2018-07-20T23:13:41.977Z,64.90
2018-07-20T23:16:10.637Z,64.80
2018-07-20T23:18:39.113Z,64.40
2018-07-20T23:23:35.894Z,64.20
2018-07-20T23:26:04.394Z,64.00
2018-07-20T23:28:32.891Z,64.10
2018-07-20T23:31:01.496Z,65.00
2018-07-20T23:33:30.106Z,65.10
2018-07-20T23:35:58.693Z,64.40
2018-07-20T23:38:27.283Z,64.50
2018-07-20T23:40:55.781Z,64.70
2018-07-20T23:43:24.379Z,64.90
2018-07-20T23:45:52.841Z,64.90
2018-07-20T23:48:21.442Z,65.20
2018-07-20T23:50:50.051Z,65.70
2018-07-20T23:53:20.264Z,66.10
2018-07-20T23:55:49.166Z,66.60
2018-07-20T23:58:17.740Z,67.00
